Terminal Aerodrome Forecast
Issued by NWS

Home | Current Version | Previous Version | Text Only | Print | Product List | Glossary On
Versions: 1 2 3 4 5 6 7 8 9 10 11 12 13 14 15 16 17 18 19 20 21 22 23 24 25 26 27 28
000
FTUS46 KSEW 012300
TAFBFI
TAF
KBFI 012325Z 0200/0224 15009G15KT P6SM SCT009 BKN012 BKN027
      TEMPO 0200/0202 OVC010
     FM020200 16005KT P6SM OVC015
     FM021200 14003KT 4SM BR OVC007
     FM021600 13003KT P6SM SCT025 BKN050 OVC100
     FM022000 15006KT P6SM -RA OVC015=

USA.gov is the U.S. government's official web portal to all federal, state and local government web resources and services.